Angola, New York
Current Conditions -  °F | °C
As of 2:53 AM on Friday 31 Oct 2014 (Local Time) from KDKK Reporting Station
Overcast Overcast  
Wind Chill: 40°   Ceiling: 5500
Heat Index: 44°   Visibility: 10mi
Dew Point: 38°   Wind: 8mph
Humidity: 79%   Direction: 190°S
Pressure: 29.98"   Gusts: NA
Location:  42.64°N, 79.03°W
Report Text: KDKK 310653Z AUTO 19007KT 10SM OVC055 07/03 A2998 RMK AO2 RAE01 SLP156 P0000 T00670033
Loading
Personal Weather Stations






























Interactive Weather Map
Tropical Storm Tracking
New forecast layout! Learn more

10-Day Weather Forecast

Advertisements
Track Severe Weather on mobile